createdAt,value
2019-05-11T00:01:56.491Z,78.22
2019-05-11T00:04:25.411Z,78.60
2019-05-11T00:06:54.167Z,78.45
2019-05-11T00:09:23.107Z,78.32
2019-05-11T00:11:52.027Z,77.96
2019-05-11T00:14:21.219Z,78.00
2019-05-11T00:16:50.044Z,77.79
2019-05-11T00:19:18.818Z,77.93
2019-05-11T00:21:47.697Z,78.21
2019-05-11T00:24:16.518Z,78.37
2019-05-11T00:26:48.959Z,78.49
2019-05-11T00:29:17.836Z,78.70
2019-05-11T00:31:46.687Z,78.30
2019-05-11T00:34:15.552Z,78.07
2019-05-11T00:36:44.483Z,78.03
2019-05-11T00:39:13.278Z,78.25
2019-05-11T00:41:42.267Z,78.50
2019-05-11T00:44:11.170Z,77.79
2019-05-11T00:46:40.149Z,77.56
2019-05-11T00:49:09.007Z,77.42
2019-05-11T00:51:37.837Z,77.70
2019-05-11T00:54:06.681Z,78.41
2019-05-11T00:56:35.790Z,78.04
2019-05-11T00:59:05.012Z,77.52
2019-05-11T01:01:34.196Z,77.83
2019-05-11T01:04:03.047Z,77.88
2019-05-11T01:06:31.889Z,78.07
2019-05-11T01:09:00.727Z,77.79
2019-05-11T01:11:29.474Z,78.05
2019-05-11T01:13:58.297Z,77.98
2019-05-11T01:16:27.121Z,78.10
2019-05-11T01:18:55.958Z,77.85
2019-05-11T01:21:24.841Z,78.14
2019-05-11T01:23:53.739Z,77.71
2019-05-11T01:26:22.665Z,77.87
2019-05-11T01:28:51.609Z,77.74
2019-05-11T01:31:20.386Z,77.69
2019-05-11T01:33:49.316Z,77.98
2019-05-11T01:36:18.376Z,77.70
2019-05-11T01:38:47.329Z,77.65
2019-05-11T01:41:16.352Z,77.10
2019-05-11T01:43:45.261Z,77.39
2019-05-11T01:46:14.255Z,77.14
2019-05-11T01:48:43.168Z,76.88
2019-05-11T01:51:12.499Z,77.11
2019-05-11T01:53:41.443Z,77.03
2019-05-11T01:56:10.512Z,77.16
2019-05-11T01:58:39.746Z,77.26
2019-05-11T02:01:08.664Z,77.67
2019-05-11T02:03:37.570Z,77.60
2019-05-11T02:06:08.629Z,77.57
2019-05-11T02:08:37.415Z,77.56
2019-05-11T02:11:15.523Z,77.84
2019-05-11T02:13:36.845Z,77.69
2019-05-11T02:16:05.656Z,78.43
2019-05-11T02:18:34.727Z,78.61
2019-05-11T02:21:03.957Z,78.87
2019-05-11T02:23:32.740Z,78.85
2019-05-11T02:26:01.532Z,78.87
2019-05-11T02:28:30.434Z,78.99
2019-05-11T02:30:59.336Z,79.30
2019-05-11T02:33:29.097Z,79.67
2019-05-11T02:35:57.888Z,79.89
2019-05-11T02:38:26.749Z,80.53
2019-05-11T02:40:55.547Z,80.84
2019-05-11T02:43:24.333Z,80.80
2019-05-11T02:45:53.116Z,81.12
2019-05-11T02:48:22.272Z,81.42
2019-05-11T02:50:51.421Z,81.67
2019-05-11T02:53:20.322Z,81.99
2019-05-11T02:55:49.792Z,82.04
2019-05-11T02:58:19.028Z,82.14
2019-05-11T03:00:48.011Z,82.14
2019-05-11T03:03:16.798Z,82.31
2019-05-11T03:05:45.766Z,82.26
2019-05-11T03:08:14.653Z,82.42
2019-05-11T03:10:43.694Z,82.79
2019-05-11T03:13:12.544Z,82.85
2019-05-11T03:15:41.836Z,82.48
2019-05-11T03:18:10.723Z,82.57
2019-05-11T03:20:39.437Z,82.89
2019-05-11T03:23:08.184Z,82.82
2019-05-11T03:25:37.107Z,83.05
2019-05-11T03:28:06.327Z,83.24
2019-05-11T03:30:35.269Z,83.56
2019-05-11T03:33:04.130Z,83.76
2019-05-11T03:35:33.019Z,83.69
2019-05-11T03:38:01.831Z,83.95
2019-05-11T03:40:30.589Z,84.33
2019-05-11T03:42:59.469Z,84.46
2019-05-11T03:45:28.244Z,84.68
2019-05-11T03:47:57.053Z,84.58
2019-05-11T03:50:25.826Z,84.79
2019-05-11T03:52:54.629Z,85.15
2019-05-11T03:55:26.485Z,84.75
2019-05-11T03:57:56.591Z,84.99
2019-05-11T04:00:25.774Z,85.17
2019-05-11T04:02:54.738Z,85.65
2019-05-11T04:05:23.632Z,85.49
2019-05-11T04:07:52.353Z,85.47
2019-05-11T04:10:24.825Z,85.55
2019-05-11T04:12:51.912Z,85.64
2019-05-11T04:15:20.904Z,85.82
2019-05-11T04:17:49.723Z,85.80
2019-05-11T04:20:18.748Z,86.03
2019-05-11T04:22:47.492Z,86.23
2019-05-11T04:25:16.352Z,86.22
2019-05-11T04:27:45.192Z,86.09
2019-05-11T04:30:14.478Z,86.09
2019-05-11T04:32:43.827Z,86.04
2019-05-11T04:35:12.712Z,86.07
2019-05-11T04:37:41.628Z,86.02
2019-05-11T04:40:10.574Z,86.06
2019-05-11T04:42:54.206Z,86.10
2019-05-11T04:45:10.973Z,85.98
2019-05-11T04:47:39.932Z,85.35
2019-05-11T04:50:08.918Z,85.56
2019-05-11T04:52:37.845Z,85.37
2019-05-11T04:55:06.736Z,85.23
2019-05-11T04:57:35.568Z,85.48
2019-05-11T05:00:05.660Z,85.52
2019-05-11T05:02:34.951Z,85.69
2019-05-11T05:05:03.798Z,85.68
2019-05-11T05:07:32.632Z,85.87
2019-05-11T05:10:01.835Z,85.89
2019-05-11T05:12:30.770Z,86.08
2019-05-11T05:14:59.939Z,85.98
2019-05-11T05:17:28.777Z,85.96
2019-05-11T05:19:57.685Z,86.34
2019-05-11T05:22:28.116Z,86.44
2019-05-11T05:24:57.086Z,86.75
2019-05-11T05:27:26.549Z,86.64
2019-05-11T05:29:55.314Z,86.90
2019-05-11T05:32:24.130Z,87.14
2019-05-11T05:34:53.001Z,87.40
2019-05-11T05:37:22.039Z,87.58
2019-05-11T05:39:51.171Z,87.71
2019-05-11T05:42:19.997Z,87.92
2019-05-11T05:44:48.881Z,87.90
2019-05-11T05:47:18.012Z,88.28
2019-05-11T05:49:49.261Z,88.26
2019-05-11T05:52:18.143Z,88.73
2019-05-11T05:54:47.165Z,88.88
2019-05-11T05:57:16.341Z,88.89
2019-05-11T05:59:46.399Z,89.16
2019-05-11T06:02:20.293Z,89.01
2019-05-11T06:04:49.239Z,89.19
2019-05-11T06:07:19.246Z,89.61
2019-05-11T06:09:49.136Z,90.06
2019-05-11T06:12:20.599Z,90.44
2019-05-11T06:14:49.447Z,90.46
2019-05-11T06:17:18.333Z,90.48
2019-05-11T06:19:47.491Z,90.65
2019-05-11T06:22:18.081Z,90.60
2019-05-11T06:24:46.994Z,90.52
2019-05-11T06:27:15.860Z,90.94
2019-05-11T06:29:52.801Z,90.47
2019-05-11T06:32:21.711Z,90.57
2019-05-11T06:34:50.666Z,90.53
2019-05-11T06:37:19.665Z,90.51
2019-05-11T06:39:49.918Z,90.58
2019-05-11T06:42:18.888Z,90.80
2019-05-11T06:44:48.169Z,90.73
2019-05-11T06:47:17.339Z,91.04
2019-05-11T06:49:46.611Z,91.33
2019-05-11T06:52:15.477Z,91.52
2019-05-11T06:54:44.491Z,91.89
2019-05-11T06:57:13.435Z,92.14
2019-05-11T06:59:42.265Z,92.37
2019-05-11T07:02:11.275Z,92.59
2019-05-11T07:04:40.131Z,92.67
2019-05-11T07:07:09.144Z,93.03
2019-05-11T07:09:38.115Z,93.42
2019-05-11T07:12:06.985Z,92.87
2019-05-11T07:14:35.946Z,91.84
2019-05-11T07:17:05.943Z,90.16
2019-05-11T07:19:35.810Z,88.38
2019-05-11T07:22:05.151Z,87.46
2019-05-11T07:24:34.036Z,87.35
2019-05-11T07:27:02.966Z,87.65
2019-05-11T07:29:31.825Z,87.51
2019-05-11T07:32:10.095Z,87.11
2019-05-11T07:34:31.476Z,87.77
2019-05-11T07:37:00.394Z,87.73
2019-05-11T07:39:29.723Z,88.04
2019-05-11T07:41:58.739Z,88.29
2019-05-11T07:44:37.968Z,88.17
2019-05-11T07:46:59.210Z,88.17
2019-05-11T07:49:29.233Z,88.26
2019-05-11T07:52:00.721Z,88.40
2019-05-11T07:54:29.587Z,88.80
2019-05-11T07:57:00.192Z,88.99
2019-05-11T07:59:29.168Z,89.66
2019-05-11T08:01:58.479Z,90.02
2019-05-11T08:04:37.796Z,90.01
2019-05-11T08:07:07.742Z,88.72
2019-05-11T08:09:38.074Z,88.74
2019-05-11T08:12:08.940Z,88.90
2019-05-11T08:14:55.888Z,87.49
2019-05-11T08:17:09.274Z,86.81
2019-05-11T08:19:38.513Z,84.72
2019-05-11T08:22:22.687Z,83.11
2019-05-11T08:24:50.746Z,82.11
2019-05-11T08:27:19.708Z,80.55
2019-05-11T08:29:49.305Z,77.22
2019-05-11T08:32:18.441Z,77.11
2019-05-11T08:34:49.056Z,78.28
2019-05-11T08:37:22.421Z,77.46
2019-05-11T08:39:54.563Z,76.59
2019-05-11T08:42:25.734Z,75.89
2019-05-11T08:45:16.113Z,75.28
2019-05-11T08:47:31.144Z,75.43
2019-05-11T08:49:59.978Z,73.81
2019-05-11T08:52:29.300Z,69.53
2019-05-11T08:54:58.806Z,69.82
2019-05-11T08:57:28.583Z,67.53
2019-05-11T08:59:58.048Z,69.22
2019-05-11T09:02:27.843Z,65.37
2019-05-11T09:04:58.815Z,67.12
2019-05-11T09:07:29.280Z,64.03
2019-05-11T09:09:58.780Z,63.74
2019-05-11T09:12:29.961Z,64.70
2019-05-11T09:14:59.136Z,66.23
2019-05-11T09:17:28.978Z,63.12
2019-05-11T09:19:58.210Z,64.36
2019-05-11T09:22:28.508Z,63.32
2019-05-11T09:24:58.364Z,64.15
2019-05-11T09:27:30.143Z,61.95
2019-05-11T09:29:59.180Z,61.85
2019-05-11T09:32:28.655Z,64.32
2019-05-11T09:34:58.095Z,63.35
2019-05-11T09:37:27.858Z,63.72
2019-05-11T09:39:58.333Z,63.48
2019-05-11T09:42:28.560Z,64.36
2019-05-11T09:44:58.610Z,63.15
2019-05-11T09:47:28.039Z,62.94
2019-05-11T09:49:58.189Z,60.27
2019-05-11T09:52:32.670Z,60.86
2019-05-11T09:55:02.000Z,62.19
2019-05-11T09:57:31.400Z,61.34
2019-05-11T10:00:00.322Z,62.07
2019-05-11T10:02:29.234Z,60.20
2019-05-11T10:04:58.203Z,59.69
2019-05-11T10:07:28.610Z,58.03
2019-05-11T10:09:58.330Z,59.39
2019-05-11T10:12:28.611Z,58.27
2019-05-11T10:14:59.181Z,59.45
2019-05-11T10:17:31.665Z,58.83
2019-05-11T10:20:03.187Z,60.59
2019-05-11T10:22:32.041Z,60.47
2019-05-11T10:25:03.918Z,62.52
2019-05-11T10:27:33.185Z,60.94
2019-05-11T10:30:02.307Z,59.65
2019-05-11T10:32:31.192Z,60.14
2019-05-11T10:35:09.410Z,58.68
2019-05-11T10:37:39.057Z,59.34
2019-05-11T10:40:09.663Z,57.92
2019-05-11T10:42:38.551Z,55.63
2019-05-11T10:45:09.142Z,56.35
2019-05-11T10:47:38.586Z,54.37
2019-05-11T10:50:08.580Z,56.06
2019-05-11T10:52:38.008Z,53.39
2019-05-11T10:55:08.813Z,53.47
2019-05-11T10:57:38.690Z,53.24
2019-05-11T11:00:08.606Z,51.25
2019-05-11T11:02:38.656Z,50.29
2019-05-11T11:05:08.250Z,51.06
2019-05-11T11:07:38.361Z,51.02
2019-05-11T11:10:08.854Z,50.40
2019-05-11T11:23:50.096Z,60.96
2019-05-11T11:29:02.587Z,57.61
2019-05-11T11:31:31.474Z,57.43
2019-05-11T11:34:08.172Z,58.05
2019-05-11T11:36:37.679Z,59.00
2019-05-11T11:39:08.530Z,57.89
2019-05-11T11:41:38.460Z,58.09
2019-05-11T11:44:08.030Z,58.18
2019-05-11T11:46:51.251Z,57.70
2019-05-11T11:49:08.342Z,57.70
2019-05-11T11:51:41.028Z,57.77
2019-05-11T11:54:09.814Z,58.58
2019-05-11T11:56:38.631Z,57.68
2019-05-11T11:59:08.546Z,58.67
2019-05-11T12:01:38.469Z,57.88
2019-05-11T12:04:08.652Z,57.95
2019-05-11T12:06:38.541Z,58.13
2019-05-11T12:09:08.929Z,57.92
2019-05-11T12:11:42.459Z,58.32
2019-05-11T12:14:28.322Z,59.02
2019-05-11T12:17:07.387Z,59.64
2019-05-11T12:19:28.123Z,57.83
2019-05-11T12:21:57.988Z,57.71
2019-05-11T12:24:28.772Z,58.19
2019-05-11T12:26:58.738Z,58.72
2019-05-11T12:29:28.287Z,58.70
2019-05-11T12:31:59.157Z,58.61
2019-05-11T12:34:28.483Z,59.47
2019-05-11T12:36:58.139Z,57.42
2019-05-11T12:39:28.239Z,58.17
2019-05-11T12:41:58.273Z,57.79
2019-05-11T12:44:29.955Z,57.73
2019-05-11T12:46:59.905Z,58.52
2019-05-11T12:49:29.132Z,58.17
2019-05-11T12:51:58.338Z,59.01
2019-05-11T12:54:28.084Z,58.74
2019-05-11T12:56:58.058Z,57.61
2019-05-11T12:59:30.219Z,58.06
2019-05-11T13:01:59.273Z,59.68
2019-05-11T13:04:28.467Z,58.46
2019-05-11T13:06:58.168Z,58.06
2019-05-11T13:09:28.827Z,56.47
2019-05-11T13:11:59.270Z,56.77
2019-05-11T13:14:34.388Z,60.90
2019-05-11T13:17:04.433Z,64.57
2019-05-11T13:19:33.362Z,67.51
2019-05-11T13:22:02.885Z,72.65
2019-05-11T13:24:31.762Z,74.80
2019-05-11T13:27:02.733Z,77.77
2019-05-11T13:29:32.810Z,80.14
2019-05-11T13:32:01.798Z,82.79
2019-05-11T13:34:31.612Z,86.14
2019-05-11T13:37:00.431Z,88.39
2019-05-11T13:39:29.244Z,89.48
2019-05-11T13:41:59.056Z,90.20
2019-05-11T13:44:28.164Z,91.37
2019-05-11T13:46:58.692Z,92.45
2019-05-11T13:49:28.385Z,93.35
2019-05-11T13:52:04.257Z,94.43
2019-05-11T13:54:33.114Z,94.57
2019-05-11T13:57:03.018Z,95.06
2019-05-11T13:59:31.840Z,95.46
2019-05-11T14:02:00.853Z,95.74
2019-05-11T14:04:29.614Z,95.63
2019-05-11T14:06:59.431Z,95.98
2019-05-11T14:09:29.392Z,95.95
2019-05-11T14:11:58.540Z,96.79
2019-05-11T14:14:28.750Z,96.83
2019-05-11T14:16:58.850Z,97.05
2019-05-11T14:19:29.232Z,97.24
2019-05-11T14:22:00.463Z,97.38
2019-05-11T14:24:30.465Z,97.55
2019-05-11T14:26:59.498Z,97.88
2019-05-11T14:29:28.611Z,98.46
2019-05-11T14:32:11.130Z,98.45
2019-05-11T14:34:39.938Z,98.03
2019-05-11T14:37:09.003Z,97.96
2019-05-11T14:39:38.444Z,98.06
2019-05-11T14:42:07.757Z,97.94
2019-05-11T14:44:37.752Z,98.13
2019-05-11T14:47:08.521Z,98.26
2019-05-11T14:49:37.946Z,98.39
2019-05-11T14:52:09.004Z,98.42
2019-05-11T14:54:38.348Z,98.43
2019-05-11T14:57:08.119Z,97.75
2019-05-11T14:59:37.744Z,97.43
2019-05-11T15:02:25.344Z,97.65
2019-05-11T15:04:54.550Z,97.03
2019-05-11T15:07:29.396Z,95.55
2019-05-11T15:09:58.698Z,95.04
2019-05-11T15:12:28.830Z,94.92
2019-05-11T15:14:59.123Z,95.74
2019-05-11T15:17:28.303Z,96.83
2019-05-11T15:19:58.031Z,97.57
2019-05-11T15:22:28.743Z,98.24
2019-05-11T15:25:00.769Z,98.86
2019-05-11T15:27:29.715Z,99.10
2019-05-11T15:29:58.859Z,99.22
2019-05-11T15:32:28.591Z,99.11
2019-05-11T15:34:57.892Z,99.27
2019-05-11T15:37:28.671Z,99.35
2019-05-11T15:40:18.479Z,99.49
2019-05-11T15:42:49.242Z,99.52
2019-05-11T15:45:19.674Z,99.58
2019-05-11T15:47:50.636Z,99.61
2019-05-11T15:50:21.213Z,99.70
2019-05-11T15:52:51.328Z,99.86
2019-05-11T15:55:20.401Z,100.00
2019-05-11T15:57:49.386Z,100.00
2019-05-11T16:00:20.531Z,100.00
2019-05-11T16:02:49.653Z,100.00
2019-05-11T16:05:19.530Z,100.00
2019-05-11T16:07:49.192Z,100.00
2019-05-11T16:10:18.941Z,100.00
2019-05-11T16:12:48.725Z,100.00
2019-05-11T16:15:19.201Z,100.00
2019-05-11T16:17:48.925Z,100.00
2019-05-11T16:20:19.428Z,100.00
2019-05-11T16:22:48.400Z,100.00
2019-05-11T16:25:19.641Z,100.00
2019-05-11T16:27:48.366Z,100.00
2019-05-11T16:30:21.127Z,100.00
2019-05-11T16:32:48.799Z,100.00
2019-05-11T16:35:23.721Z,100.00
2019-05-11T16:37:52.650Z,100.00
2019-05-11T16:40:21.606Z,100.00
2019-05-11T16:42:50.973Z,100.00
2019-05-11T16:45:23.870Z,100.00
2019-05-11T16:47:52.880Z,100.00
2019-05-11T16:50:21.693Z,100.00
2019-05-11T16:52:50.471Z,100.00
2019-05-11T16:55:19.378Z,100.00
2019-05-11T16:57:48.759Z,100.00
2019-05-11T17:00:18.237Z,100.00
2019-05-11T17:02:49.662Z,100.00
2019-05-11T17:05:26.617Z,100.00
2019-05-11T17:07:49.273Z,100.00
2019-05-11T17:10:18.315Z,100.00
2019-05-11T17:12:48.256Z,100.00
2019-05-11T17:15:18.630Z,100.00
2019-05-11T17:17:48.832Z,100.00
2019-05-11T17:20:18.932Z,100.00
2019-05-11T17:22:48.450Z,100.00
2019-05-11T17:25:19.327Z,100.00
2019-05-11T17:27:48.860Z,100.00
2019-05-11T17:30:19.219Z,100.00
2019-05-11T17:32:49.484Z,100.00
2019-05-11T17:35:18.893Z,100.00
2019-05-11T17:37:49.123Z,100.00
2019-05-11T17:40:22.774Z,100.00
2019-05-11T17:42:52.824Z,99.82
2019-05-11T17:45:20.054Z,99.68
2019-05-11T17:47:49.362Z,99.44
2019-05-11T17:50:19.305Z,99.10
2019-05-11T17:52:48.573Z,99.15
2019-05-11T17:55:18.822Z,99.25
2019-05-11T17:57:49.699Z,99.21
2019-05-11T18:00:20.057Z,99.15
2019-05-11T18:02:49.824Z,99.03
2019-05-11T18:05:18.759Z,99.21
2019-05-11T18:07:48.097Z,99.41
2019-05-11T18:10:18.243Z,99.65
2019-05-11T18:12:48.906Z,99.91
2019-05-11T18:15:20.440Z,100.00
2019-05-11T18:17:49.461Z,100.00
2019-05-11T18:20:21.510Z,100.00
2019-05-11T18:22:51.066Z,100.00
2019-05-11T18:25:28.513Z,100.00
2019-05-11T18:27:58.193Z,100.00
2019-05-11T18:30:29.104Z,100.00
2019-05-11T18:32:59.382Z,100.00
2019-05-11T18:35:28.421Z,100.00
2019-05-11T18:37:57.218Z,100.00
2019-05-11T18:40:26.112Z,100.00
2019-05-11T18:42:54.979Z,100.00
2019-05-11T18:45:23.876Z,100.00
2019-05-11T18:47:52.697Z,100.00
2019-05-11T18:50:30.457Z,100.00
2019-05-11T18:52:52.841Z,100.00
2019-05-11T18:55:21.796Z,100.00
2019-05-11T18:57:51.971Z,100.00
2019-05-11T19:02:59.187Z,100.00
2019-05-11T19:05:29.524Z,100.00
2019-05-11T19:07:58.816Z,100.00
2019-05-11T19:10:28.024Z,100.00
2019-05-11T19:12:58.948Z,100.00
2019-05-11T19:15:28.253Z,100.00
2019-05-11T19:17:59.605Z,100.00
2019-05-11T19:20:28.600Z,100.00
2019-05-11T19:22:59.034Z,100.00
2019-05-11T19:25:30.102Z,100.00
2019-05-11T19:28:01.008Z,100.00
2019-05-11T19:30:33.546Z,100.00
2019-05-11T19:33:08.269Z,100.00
2019-05-11T19:35:37.854Z,100.00
2019-05-11T19:38:08.864Z,100.00
2019-05-11T19:40:40.171Z,100.00
2019-05-11T19:43:10.896Z,100.00
2019-05-11T19:45:42.459Z,100.00
2019-05-11T19:48:11.395Z,100.00
2019-05-11T19:50:41.125Z,100.00
2019-05-11T19:53:10.222Z,100.00
2019-05-11T19:55:39.354Z,100.00
2019-05-11T19:58:08.333Z,100.00
2019-05-11T20:00:38.044Z,100.00
2019-05-11T20:03:09.166Z,100.00
2019-05-11T20:05:39.372Z,100.00
2019-05-11T20:08:08.328Z,100.00
2019-05-11T20:10:38.556Z,100.00
2019-05-11T20:13:11.606Z,100.00
2019-05-11T20:15:41.609Z,100.00
2019-05-11T20:18:12.819Z,100.00
2019-05-11T20:20:42.199Z,100.00
2019-05-11T20:23:12.170Z,100.00
2019-05-11T20:25:47.774Z,100.00
2019-05-11T20:28:18.376Z,100.00
2019-05-11T20:30:49.210Z,100.00
2019-05-11T20:33:19.517Z,100.00
2019-05-11T20:35:53.547Z,100.00
2019-05-11T20:38:30.547Z,100.00
2019-05-11T20:40:59.524Z,100.00
2019-05-11T20:43:28.444Z,100.00
2019-05-11T20:45:57.455Z,100.00
2019-05-11T20:48:27.812Z,100.00
2019-05-11T20:50:57.755Z,100.00
2019-05-11T20:53:28.760Z,100.00
2019-05-11T20:55:58.531Z,100.00
2019-05-11T20:58:55.051Z,100.00
2019-05-11T21:01:30.067Z,100.00
2019-05-11T21:04:04.147Z,100.00
2019-05-11T21:06:32.976Z,100.00
2019-05-11T21:09:04.823Z,100.00
2019-05-11T21:11:33.575Z,100.00
2019-05-11T21:14:02.402Z,100.00
2019-05-11T21:16:34.558Z,100.00
2019-05-11T21:19:04.344Z,100.00
2019-05-11T21:21:49.435Z,100.00
2019-05-11T21:24:08.482Z,100.00
2019-05-11T21:26:39.844Z,100.00
2019-05-11T21:29:14.305Z,100.00
2019-05-11T21:31:43.263Z,100.00
2019-05-11T21:34:13.332Z,100.00
2019-05-11T21:36:42.228Z,100.00
2019-05-11T21:39:11.109Z,100.00
2019-05-11T21:41:40.694Z,100.00
2019-05-11T21:44:09.693Z,100.00
2019-05-11T21:46:38.945Z,100.00
2019-05-11T21:49:07.979Z,100.00
2019-05-11T21:51:38.905Z,100.00
2019-05-11T21:54:12.170Z,100.00
2019-05-11T21:56:43.345Z,100.00
2019-05-11T21:59:14.659Z,100.00
2019-05-11T22:01:43.801Z,100.00
2019-05-11T22:04:13.451Z,100.00
2019-05-11T22:06:42.382Z,100.00
2019-05-11T22:09:11.236Z,100.00
2019-05-11T22:11:40.121Z,100.00
2019-05-11T22:14:14.934Z,100.00
2019-05-11T22:16:47.841Z,100.00
2019-05-11T22:19:17.769Z,100.00
2019-05-11T22:21:49.642Z,100.00
2019-05-11T22:24:18.577Z,100.00
2019-05-11T22:26:47.608Z,100.00
2019-05-11T22:29:18.141Z,100.00
2019-05-11T22:31:48.684Z,100.00
2019-05-11T22:34:18.040Z,100.00
2019-05-11T22:36:53.969Z,100.00
2019-05-11T22:39:23.230Z,100.00
2019-05-11T22:41:52.076Z,100.00
2019-05-11T22:44:20.986Z,100.00
2019-05-11T22:46:49.788Z,100.00
2019-05-11T22:49:19.815Z,100.00
2019-05-11T22:51:51.514Z,100.00
2019-05-11T22:54:20.551Z,100.00
2019-05-11T22:56:49.335Z,100.00
2019-05-11T22:59:18.528Z,100.00
2019-05-11T23:01:48.290Z,100.00
2019-05-11T23:04:19.682Z,100.00
2019-05-11T23:06:47.869Z,100.00
2019-05-11T23:09:18.472Z,100.00
2019-05-11T23:11:48.229Z,100.00
2019-05-11T23:14:17.690Z,100.00
2019-05-11T23:16:49.876Z,100.00
2019-05-11T23:19:18.711Z,100.00
2019-05-11T23:21:48.140Z,100.00
2019-05-11T23:24:18.099Z,100.00
2019-05-11T23:26:48.059Z,100.00
2019-05-11T23:29:17.100Z,100.00
2019-05-11T23:31:47.768Z,100.00
2019-05-11T23:34:17.726Z,100.00
2019-05-11T23:36:48.696Z,100.00
2019-05-11T23:39:17.873Z,100.00
2019-05-11T23:41:48.239Z,100.00
2019-05-11T23:44:17.999Z,100.00
2019-05-11T23:46:47.834Z,100.00
2019-05-11T23:49:17.937Z,100.00
2019-05-11T23:51:47.804Z,100.00
2019-05-11T23:54:18.575Z,100.00
2019-05-11T23:56:48.040Z,100.00
2019-05-11T23:59:18.815Z,100.00
